createdAt,value
2023-06-05T00:02:26.785Z,3.55
2023-06-05T00:05:28.192Z,3.23
2023-06-05T00:08:29.552Z,3.78
2023-06-05T00:11:30.868Z,3.60
2023-06-05T00:14:32.216Z,3.85
2023-06-05T00:17:33.605Z,3.78
2023-06-05T00:20:35.023Z,3.53
2023-06-05T00:23:36.434Z,3.83
2023-06-05T00:26:37.836Z,3.83
2023-06-05T00:29:39.253Z,4.22
2023-06-05T00:32:40.744Z,4.90
2023-06-05T00:35:42.104Z,4.10
2023-06-05T00:38:43.445Z,4.28
2023-06-05T00:41:44.783Z,3.97
2023-06-05T00:44:46.134Z,4.38
2023-06-05T00:47:47.516Z,4.55
2023-06-05T00:50:48.867Z,3.60
2023-06-05T00:53:50.203Z,3.78
2023-06-05T00:56:51.532Z,4.30
2023-06-05T00:59:52.899Z,3.92
2023-06-05T01:02:54.589Z,4.43
2023-06-05T01:05:56.097Z,4.43
2023-06-05T01:08:57.446Z,3.38
2023-06-05T01:11:58.799Z,4.15
2023-06-05T01:15:00.235Z,4.68
2023-06-05T01:18:01.816Z,4.32
2023-06-05T01:21:03.306Z,3.83
2023-06-05T01:24:04.641Z,3.40
2023-06-05T01:27:06.016Z,4.50
2023-06-05T01:30:07.407Z,4.22
2023-06-05T01:33:08.805Z,4.78
2023-06-05T01:36:10.189Z,3.93
2023-06-05T01:39:11.529Z,4.47
2023-06-05T01:42:12.878Z,4.22
2023-06-05T01:45:14.215Z,3.75
2023-06-05T01:48:15.569Z,3.92
2023-06-05T01:51:16.908Z,4.13
2023-06-05T01:54:18.246Z,4.18
2023-06-05T01:57:19.581Z,4.35
2023-06-05T02:00:20.914Z,3.65
2023-06-05T02:03:22.371Z,4.63
2023-06-05T02:06:23.817Z,4.30
2023-06-05T02:09:25.161Z,4.20
2023-06-05T02:12:26.504Z,4.53
2023-06-05T02:15:27.855Z,4.05
2023-06-05T02:18:29.180Z,3.65
2023-06-05T02:21:30.504Z,3.60
2023-06-05T02:24:31.853Z,4.10
2023-06-05T02:27:33.186Z,4.10
2023-06-05T02:30:34.550Z,3.85
2023-06-05T02:33:36.084Z,3.58
2023-06-05T02:36:37.427Z,3.17
2023-06-05T02:39:38.812Z,4.07
2023-06-05T02:42:40.182Z,4.28
2023-06-05T02:45:41.567Z,4.20
2023-06-05T02:48:42.940Z,4.07
2023-06-05T02:51:44.270Z,3.73
2023-06-05T02:54:45.577Z,4.13
2023-06-05T02:57:46.905Z,4.57
2023-06-05T03:00:48.255Z,4.60
2023-06-05T03:03:49.824Z,5.43
2023-06-05T03:06:51.389Z,3.63
2023-06-05T03:09:52.722Z,4.70
2023-06-05T03:12:54.068Z,4.82
2023-06-05T03:15:55.428Z,4.80
2023-06-05T03:18:56.800Z,5.13
2023-06-05T03:21:58.138Z,3.73
2023-06-05T03:24:59.499Z,4.20
2023-06-05T03:28:00.834Z,4.28
2023-06-05T03:31:02.171Z,4.38
2023-06-05T03:34:03.603Z,4.68
2023-06-05T03:37:05.017Z,3.97
2023-06-05T03:40:06.439Z,3.83
2023-06-05T03:43:07.826Z,4.63
2023-06-05T03:46:10.403Z,4.53
2023-06-05T03:49:11.773Z,5.53
2023-06-05T03:52:13.086Z,5.10
2023-06-05T03:55:14.445Z,4.88
2023-06-05T03:58:15.784Z,5.05
2023-06-05T04:01:17.142Z,3.50
2023-06-05T04:04:18.608Z,3.90
2023-06-05T04:07:20.041Z,4.10
2023-06-05T04:10:21.380Z,3.50
2023-06-05T04:13:22.712Z,3.95
2023-06-05T04:16:24.081Z,4.15
2023-06-05T04:19:25.457Z,3.72
2023-06-05T04:22:26.819Z,3.40
2023-06-05T04:25:28.168Z,3.55
2023-06-05T04:28:29.541Z,4.00
2023-06-05T04:31:30.897Z,4.00
2023-06-05T04:34:32.302Z,4.57
2023-06-05T04:37:33.640Z,4.30
2023-06-05T04:40:34.990Z,4.80
2023-06-05T04:43:36.330Z,4.25
2023-06-05T04:46:37.713Z,5.70
2023-06-05T04:49:39.107Z,7.65
2023-06-05T04:52:40.439Z,8.13
2023-06-05T04:55:41.812Z,7.20
2023-06-05T04:58:43.160Z,6.85
2023-06-05T05:01:44.599Z,6.88
2023-06-05T05:04:45.962Z,6.00
2023-06-05T05:07:47.350Z,5.23
2023-06-05T05:10:48.709Z,5.55
2023-06-05T05:13:50.044Z,6.38
2023-06-05T05:16:51.395Z,5.10
2023-06-05T05:19:52.741Z,5.82
2023-06-05T05:22:54.112Z,5.47
2023-06-05T05:25:55.471Z,4.57
2023-06-05T05:28:56.800Z,5.13
2023-06-05T05:31:58.232Z,5.32
2023-06-05T05:34:59.624Z,5.47
2023-06-05T05:38:00.988Z,5.10
2023-06-05T05:41:02.342Z,4.78
2023-06-05T05:44:03.683Z,5.57
2023-06-05T05:47:05.028Z,5.07
2023-06-05T05:50:06.368Z,4.85
2023-06-05T05:53:07.741Z,5.90
2023-06-05T05:56:09.108Z,6.30
2023-06-05T05:59:10.501Z,5.28
2023-06-05T06:02:11.904Z,4.63
2023-06-05T06:05:13.303Z,4.78
2023-06-05T06:08:14.686Z,5.20
2023-06-05T06:11:16.048Z,4.55
2023-06-05T06:14:17.387Z,5.50
2023-06-05T06:17:18.747Z,4.28
2023-06-05T06:20:20.102Z,4.18
2023-06-05T06:23:21.501Z,4.20
2023-06-05T06:26:22.851Z,4.38
2023-06-05T06:29:24.200Z,4.50
2023-06-05T06:32:25.588Z,5.45
2023-06-05T06:35:26.940Z,5.07
2023-06-05T06:38:28.292Z,5.93
2023-06-05T06:41:29.648Z,6.30
2023-06-05T06:44:31.204Z,5.25
2023-06-05T06:47:32.544Z,4.90
2023-06-05T06:50:33.950Z,4.40
2023-06-05T06:53:35.296Z,4.33
2023-06-05T06:56:36.665Z,5.18
2023-06-05T06:59:39.077Z,4.65
2023-06-05T07:02:40.695Z,4.45
2023-06-05T07:05:42.066Z,5.25
2023-06-05T07:08:43.403Z,3.97
2023-06-05T07:11:44.760Z,3.60
2023-06-05T07:14:46.081Z,4.82
2023-06-05T07:17:47.484Z,4.32
2023-06-05T07:20:48.864Z,4.25
2023-06-05T07:23:50.265Z,4.33
2023-06-05T07:26:51.650Z,4.45
2023-06-05T07:29:54.030Z,4.82
2023-06-05T07:32:55.393Z,4.50
2023-06-05T07:35:56.802Z,4.22
2023-06-05T07:38:58.152Z,4.93
2023-06-05T07:41:59.508Z,4.80
2023-06-05T07:45:00.920Z,4.90
2023-06-05T07:48:02.342Z,3.97
2023-06-05T07:51:03.762Z,3.90
2023-06-05T07:54:05.227Z,4.60
2023-06-05T07:57:06.595Z,6.22
2023-06-05T08:00:07.992Z,5.32
2023-06-05T08:03:10.543Z,5.28
2023-06-05T08:06:12.026Z,4.38
2023-06-05T08:09:13.388Z,4.87
2023-06-05T08:12:14.800Z,4.38
2023-06-05T08:15:16.262Z,4.53
2023-06-05T08:18:17.780Z,5.45
2023-06-05T08:21:19.162Z,25.58
2023-06-05T08:24:20.492Z,20.70
2023-06-05T08:27:21.835Z,23.45
2023-06-05T08:30:23.178Z,12.98
2023-06-05T08:33:24.576Z,10.13
2023-06-05T08:36:25.923Z,10.88
2023-06-05T08:39:27.270Z,6.73
2023-06-05T08:42:28.621Z,5.03
2023-06-05T08:45:30.013Z,5.47
2023-06-05T08:48:31.374Z,5.68
2023-06-05T08:51:32.729Z,6.40
2023-06-05T08:54:34.072Z,6.87
2023-06-05T08:57:35.433Z,5.72
2023-06-05T09:00:36.792Z,6.43
2023-06-05T09:03:38.187Z,5.38
2023-06-05T09:06:39.536Z,6.25
2023-06-05T09:09:40.891Z,4.90
2023-06-05T09:12:42.245Z,4.65
2023-06-05T09:15:43.588Z,4.72
2023-06-05T09:18:44.970Z,5.05
2023-06-05T09:21:46.294Z,4.90
2023-06-05T09:24:47.654Z,3.87
2023-06-05T09:27:49.038Z,4.43
2023-06-05T09:30:50.417Z,5.45
2023-06-05T09:33:51.782Z,5.85
2023-06-05T09:36:53.107Z,5.28
2023-06-05T09:39:54.465Z,5.17
2023-06-05T09:42:55.835Z,4.80
2023-06-05T09:45:57.186Z,4.00
2023-06-05T09:48:58.523Z,4.32
2023-06-05T09:51:59.913Z,3.85
2023-06-05T09:55:01.292Z,4.00
2023-06-05T09:58:02.640Z,4.10
2023-06-05T10:01:04.043Z,4.63
2023-06-05T10:04:05.456Z,4.35
2023-06-05T10:07:06.801Z,3.80
2023-06-05T10:10:08.131Z,4.37
2023-06-05T10:13:09.490Z,4.55
2023-06-05T10:16:18.335Z,6.15
2023-06-05T10:19:27.497Z,4.68
2023-06-05T10:22:28.918Z,4.90
2023-06-05T10:25:31.471Z,4.73
2023-06-05T10:28:32.905Z,4.05
2023-06-05T10:31:34.287Z,3.95
2023-06-05T10:34:35.678Z,4.15
2023-06-05T10:37:37.029Z,4.53
2023-06-05T10:40:38.387Z,4.50
2023-06-05T10:43:39.766Z,4.15
2023-06-05T10:46:41.144Z,4.97
2023-06-05T10:49:42.563Z,3.63
2023-06-05T10:52:43.916Z,4.47
2023-06-05T10:55:45.287Z,5.00
2023-06-05T10:58:46.710Z,5.00
2023-06-05T11:01:48.135Z,4.25
2023-06-05T11:04:50.085Z,3.92
2023-06-05T11:07:51.653Z,4.47
2023-06-05T11:10:52.991Z,4.77
2023-06-05T11:13:54.335Z,4.78
2023-06-05T11:16:58.530Z,4.95
2023-06-05T11:19:59.890Z,4.45
2023-06-05T11:23:01.225Z,6.15
2023-06-05T11:26:02.589Z,4.17
2023-06-05T11:29:03.928Z,3.63
2023-06-05T11:32:05.366Z,4.60
2023-06-05T11:35:06.749Z,4.32
2023-06-05T11:38:08.102Z,4.30
2023-06-05T11:41:09.453Z,4.53
2023-06-05T11:44:10.792Z,4.35
2023-06-05T11:47:12.130Z,5.00
2023-06-05T11:50:13.506Z,4.78
2023-06-05T11:53:14.857Z,4.53
2023-06-05T11:56:16.217Z,3.73
2023-06-05T11:59:17.602Z,4.25
2023-06-05T12:02:19.000Z,4.05
2023-06-05T12:05:20.342Z,3.80
2023-06-05T12:08:21.696Z,4.55
2023-06-05T12:11:23.025Z,3.93
2023-06-05T12:14:24.437Z,3.65
2023-06-05T12:17:25.819Z,3.95
2023-06-05T12:20:27.175Z,4.07
2023-06-05T12:23:28.541Z,4.75
2023-06-05T12:26:29.892Z,3.93
2023-06-05T12:29:31.256Z,4.43
2023-06-05T12:32:32.683Z,4.45
2023-06-05T12:35:34.073Z,3.38
2023-06-05T12:38:35.443Z,3.97
2023-06-05T12:41:36.800Z,4.20
2023-06-05T12:44:38.192Z,3.95
2023-06-05T12:47:39.610Z,4.78
2023-06-05T12:50:41.008Z,3.85
2023-06-05T12:53:42.478Z,4.93
2023-06-05T12:56:43.840Z,3.87
2023-06-05T12:59:45.170Z,3.67
2023-06-05T13:02:46.829Z,4.22
2023-06-05T13:05:48.504Z,4.55
2023-06-05T13:08:49.860Z,4.07
2023-06-05T13:11:51.208Z,4.00
2023-06-05T13:14:52.556Z,4.18
2023-06-05T13:17:53.967Z,4.28
2023-06-05T13:20:55.341Z,4.05
2023-06-05T13:23:56.751Z,4.63
2023-06-05T13:26:58.122Z,4.57
2023-06-05T13:29:59.482Z,4.85
2023-06-05T13:33:00.871Z,5.88
2023-06-05T13:36:02.264Z,4.85
2023-06-05T13:39:03.643Z,5.97
2023-06-05T13:42:04.988Z,4.80
2023-06-05T13:45:06.383Z,5.15
2023-06-05T13:48:07.766Z,7.80
2023-06-05T13:51:09.178Z,8.57
2023-06-05T13:54:10.502Z,9.07
2023-06-05T13:57:11.838Z,10.93
2023-06-05T14:00:13.185Z,8.48
2023-06-05T14:03:14.593Z,6.82
2023-06-05T14:06:16.180Z,6.68
2023-06-05T14:09:17.603Z,5.97
2023-06-05T14:12:18.936Z,5.13
2023-06-05T14:15:20.352Z,5.60
2023-06-05T14:18:21.867Z,6.18
2023-06-05T14:21:25.827Z,6.10
2023-06-05T14:24:27.315Z,5.93
2023-06-05T14:27:28.669Z,5.37
2023-06-05T14:30:30.022Z,5.15
2023-06-05T14:33:31.387Z,5.00
2023-06-05T14:36:32.756Z,4.50
2023-06-05T14:39:34.090Z,4.85
2023-06-05T14:42:35.424Z,6.20
2023-06-05T14:45:36.801Z,6.65
2023-06-05T14:48:38.179Z,4.82
2023-06-05T14:51:39.572Z,4.95
2023-06-05T14:54:47.033Z,5.75
2023-06-05T14:57:51.343Z,5.37
2023-06-05T15:00:56.765Z,4.88
2023-06-05T15:03:59.991Z,5.07
2023-06-05T15:07:01.412Z,4.82
2023-06-05T15:10:02.823Z,5.68
2023-06-05T15:13:04.209Z,5.67
2023-06-05T15:16:05.571Z,5.30
2023-06-05T15:19:06.905Z,5.05
2023-06-05T15:22:08.322Z,6.22
2023-06-05T15:25:09.700Z,5.10
2023-06-05T15:28:11.065Z,5.83
2023-06-05T15:31:12.547Z,5.95
2023-06-05T15:34:13.960Z,6.32
2023-06-05T15:37:15.335Z,5.57
2023-06-05T15:40:16.675Z,5.70
2023-06-05T15:43:18.089Z,6.07
2023-06-05T15:46:19.571Z,5.88
2023-06-05T15:49:20.967Z,4.95
2023-06-05T15:52:22.306Z,6.05
2023-06-05T15:55:23.670Z,6.13
2023-06-05T15:58:25.017Z,5.13
2023-06-05T16:01:26.397Z,5.55
2023-06-05T16:04:27.761Z,5.70
2023-06-05T16:07:30.494Z,5.68
2023-06-05T16:10:32.051Z,5.30
2023-06-05T16:13:33.412Z,6.00
2023-06-05T16:16:34.787Z,5.13
2023-06-05T16:19:36.152Z,4.53
2023-06-05T16:22:37.492Z,5.65
2023-06-05T16:25:38.853Z,6.00
2023-06-05T16:28:40.192Z,5.70
2023-06-05T16:31:41.566Z,5.15
2023-06-05T16:34:43.046Z,4.88
2023-06-05T16:37:44.490Z,5.38
2023-06-05T16:40:45.838Z,4.95
2023-06-05T16:43:47.236Z,5.13
2023-06-05T16:46:48.577Z,4.68
2023-06-05T16:49:49.942Z,5.00
2023-06-05T16:52:51.328Z,5.00
2023-06-05T16:55:52.691Z,4.97
2023-06-05T16:58:54.064Z,5.37
2023-06-05T17:01:55.477Z,4.82
2023-06-05T17:04:57.293Z,5.93
2023-06-05T17:07:58.936Z,5.50
2023-06-05T17:11:00.427Z,4.30
2023-06-05T17:14:01.762Z,4.67
2023-06-05T17:17:03.099Z,5.65
2023-06-05T17:20:04.447Z,5.90
2023-06-05T17:23:05.841Z,5.00
2023-06-05T17:26:07.196Z,5.88
2023-06-05T17:29:08.551Z,4.47
2023-06-05T17:32:10.215Z,4.63
2023-06-05T17:35:11.682Z,5.03
2023-06-05T17:38:13.089Z,5.05
2023-06-05T17:41:14.475Z,5.43
2023-06-05T17:44:15.825Z,5.60
2023-06-05T17:47:17.207Z,5.63
2023-06-05T17:50:18.648Z,5.68
2023-06-05T17:53:20.152Z,5.47
2023-06-05T17:56:21.759Z,5.30
2023-06-05T17:59:23.155Z,5.47
2023-06-05T18:02:24.630Z,5.20
2023-06-05T18:05:26.067Z,5.25
2023-06-05T18:08:27.484Z,4.93
2023-06-05T18:11:28.866Z,5.38
2023-06-05T18:14:30.233Z,5.03
2023-06-05T18:17:31.601Z,5.05
2023-06-05T18:20:33.481Z,5.40
2023-06-05T18:23:35.065Z,4.53
2023-06-05T18:26:36.445Z,5.95
2023-06-05T18:29:37.850Z,5.03
2023-06-05T18:32:39.223Z,5.25
2023-06-05T18:35:40.620Z,5.03
2023-06-05T18:38:42.217Z,5.10
2023-06-05T18:41:43.770Z,5.28
2023-06-05T18:44:45.132Z,4.93
2023-06-05T18:47:46.540Z,4.97
2023-06-05T18:50:48.005Z,6.03
2023-06-05T18:53:49.537Z,4.97
2023-06-05T18:56:51.314Z,5.70
2023-06-05T18:59:52.725Z,5.00
2023-06-05T19:02:54.210Z,5.25
2023-06-05T19:05:55.697Z,4.97
2023-06-05T19:08:57.070Z,6.15
2023-06-05T19:11:58.436Z,5.15
2023-06-05T19:14:59.782Z,4.10
2023-06-05T19:18:01.138Z,5.07
2023-06-05T19:21:02.544Z,5.53
2023-06-05T19:24:03.957Z,4.55
2023-06-05T19:27:05.338Z,5.55
2023-06-05T19:30:06.708Z,5.40
2023-06-05T19:33:08.574Z,5.90
2023-06-05T19:36:10.433Z,4.97
2023-06-05T19:39:11.882Z,4.75
2023-06-05T19:42:13.288Z,4.75
2023-06-05T19:45:14.703Z,4.87
2023-06-05T19:48:16.088Z,4.57
2023-06-05T19:51:17.431Z,5.20
2023-06-05T19:54:18.774Z,4.68
2023-06-05T19:57:20.111Z,4.45
2023-06-05T20:00:21.472Z,4.77
2023-06-05T20:03:22.918Z,5.38
2023-06-05T20:06:24.373Z,5.32
2023-06-05T20:09:25.737Z,4.88
2023-06-05T20:12:27.101Z,5.22
2023-06-05T20:15:28.460Z,5.07
2023-06-05T20:18:29.848Z,5.35
2023-06-05T20:21:32.730Z,5.22
2023-06-05T20:24:35.297Z,5.40
2023-06-05T20:27:36.623Z,5.88
2023-06-05T20:30:37.971Z,5.63
2023-06-05T20:33:39.342Z,5.03
2023-06-05T20:36:40.704Z,5.25
2023-06-05T20:39:42.039Z,5.28
2023-06-05T20:42:43.378Z,5.18
2023-06-05T20:45:44.761Z,5.27
2023-06-05T20:48:46.126Z,5.25
2023-06-05T20:51:47.502Z,5.20
2023-06-05T20:54:48.847Z,4.65
2023-06-05T20:57:50.254Z,5.00
2023-06-05T21:00:51.660Z,5.57
2023-06-05T21:03:53.096Z,4.93
2023-06-05T21:06:54.494Z,6.10
2023-06-05T21:09:55.842Z,5.53
2023-06-05T21:12:57.264Z,5.50
2023-06-05T21:15:58.619Z,5.40
2023-06-05T21:18:59.971Z,5.40
2023-06-05T21:22:01.345Z,5.50
2023-06-05T21:25:02.698Z,5.15
2023-06-05T21:28:04.066Z,4.78
2023-06-05T21:31:05.393Z,5.27
2023-06-05T21:34:06.783Z,5.65
2023-06-05T21:37:08.132Z,5.97
2023-06-05T21:40:09.479Z,5.60
2023-06-05T21:43:10.832Z,5.88
2023-06-05T21:46:12.247Z,5.47
2023-06-05T21:49:13.647Z,5.65
2023-06-05T21:52:14.969Z,4.50
2023-06-05T21:55:16.313Z,5.25
2023-06-05T21:58:17.663Z,5.72
2023-06-05T22:01:19.047Z,6.03
2023-06-05T22:04:20.404Z,5.68
2023-06-05T22:07:21.752Z,5.55
2023-06-05T22:10:23.074Z,5.47
2023-06-05T22:13:24.430Z,5.30
2023-06-05T22:16:25.824Z,5.10
2023-06-05T22:19:27.180Z,5.80
2023-06-05T22:22:28.531Z,6.05
2023-06-05T22:25:39.940Z,5.35
2023-06-05T22:28:51.185Z,4.93
2023-06-05T22:31:52.564Z,4.40
2023-06-05T22:34:53.983Z,4.63
2023-06-05T22:37:55.333Z,6.38
2023-06-05T22:40:56.676Z,5.50
2023-06-05T22:43:58.001Z,5.47
2023-06-05T22:46:59.345Z,5.40
2023-06-05T22:50:00.799Z,5.75
2023-06-05T22:53:02.216Z,5.82
2023-06-05T22:56:03.545Z,5.90
2023-06-05T22:59:04.891Z,6.03
2023-06-05T23:02:06.249Z,5.60
2023-06-05T23:05:07.570Z,5.38
2023-06-05T23:08:08.929Z,5.65
2023-06-05T23:11:10.510Z,5.93
2023-06-05T23:14:12.039Z,5.68
2023-06-05T23:17:13.389Z,5.80
2023-06-05T23:20:14.749Z,5.18
2023-06-05T23:23:16.107Z,6.55
2023-06-05T23:26:17.455Z,6.20
2023-06-05T23:29:18.813Z,5.53
2023-06-05T23:32:20.172Z,6.60
2023-06-05T23:35:21.527Z,5.43
2023-06-05T23:38:22.875Z,6.03
2023-06-05T23:41:24.256Z,6.25
2023-06-05T23:44:25.595Z,6.82
2023-06-05T23:47:26.984Z,5.73
2023-06-05T23:50:28.383Z,6.05
2023-06-05T23:53:29.725Z,7.60
2023-06-05T23:56:31.072Z,6.25
2023-06-05T23:59:32.422Z,7.53
